Grissom ARB Airport Peru US
ICAO: KGUS
IATA: GUS
Category: Large
Scheduled Services: No

Elevation: 812 ft
TransAlt. 18000 ft.

Airport Communications:
APP:121.05
ATIS:108.45
CLNC DEL:120
DEP:121.05
GND:128.425
PMSV METRO:34.46
PTD:37.22
TWR:133.7

KGUS Zoom In..

If you have problems with the map follow the link
https://www.worldairports.se/pages/airport.php?
ICAO=KGUS

Runways:

(A) RW 05 length 12501 ft width 200 ft
ILS 109.50 / hdg 46

(B) RW 23 length 12501 ft width 200 ft
ILS 109.50 / hdg 226

Location; KGUS
Day. 20 / Time. 20.56 Zulu
* Altimeter: 29.73
* Temperature: 03° c. 37.4°f.
* Wind from: 170° Speed 06 kn.
Dewpoint: 03° c.
Visibility: 9 Statute Miles.
Clouds: Broken 500 ft.
Clouds: Overcast 1000 ft.

KGUS 202056Z 17006KT 9SM BKN005 OVC010 03/03 A2973 RMK AO2A CIG 005V010 SLP077 SLP ESTMD P0000 60000 T00340034 56019 $


Wind From 170°
Speed 06 kn.

 
 
jpsmedia.com for Web Design worldairports.se 2019   terms of use